Terminal Aerodrome Forecast
Issued by NWS Twin Cities, MN

Home | Current Version | Previous Version | Text Only | Print | Product List | Glossary Off
Versions: 1 2 3 4 5 6 7 8 9 10 11 12 13 14 15 16 17 18 19 20 21 22 23 24 25 26 27 28

000
FTUS43 KMPX 191254 AAA
TAFMSP
TAF AMD
KMSP 191254Z 1913/2018 12009KT P6SM SCT020 OVC030
     FM191500 13012KT P6SM SCT020 OVC040
     FM191800 14014G22KT P6SM SCT025 BKN050
     FM200500 14016G25KT P6SM VCSH SCT040 BKN080 WS018/16050KT
     FM200900 14012G21KT 6SM -SHRA VCTS BKN020CB OVC040
      WS018/17050KT
     FM201200 18012KT P6SM BKN025
     FM201600 27010KT P6SM SCT100=

USA.gov is the U.S. government's official web portal to all federal, state and local government web resources and services.